sensor_id;sensor_type;location;lat;lon;timestamp;pressure;altitude;pressure_sealevel;temperature;humidity
49651;BME280;35547;55.676;37.492;2022-09-13T00:01:00;99122.88;;;15.94;46.14
49651;BME280;35547;55.676;37.492;2022-09-13T00:02:00;99125.50;;;15.94;46.17
49651;BME280;35547;55.676;37.492;2022-09-13T00:03:02;99131.34;;;15.82;46.27
49651;BME280;35547;55.676;37.492;2022-09-13T00:04:02;99125.44;;;15.96;45.77
49651;BME280;35547;55.676;37.492;2022-09-13T00:05:04;99133.47;;;16.12;45.89
49651;BME280;35547;55.676;37.492;2022-09-13T00:06:12;99125.66;;;16.28;46.35
49651;BME280;35547;55.676;37.492;2022-09-13T00:07:14;99129.75;;;16.16;45.39
49651;BME280;35547;55.676;37.492;2022-09-13T00:08:15;99126.78;;;16.05;45.89
49651;BME280;35547;55.676;37.492;2022-09-13T00:09:15;99117.88;;;16.07;45.59
49651;BME280;35547;55.676;37.492;2022-09-13T00:10:16;99129.75;;;16.16;45.56
49651;BME280;35547;55.676;37.492;2022-09-13T00:11:19;99123.66;;;16.15;45.52
49651;BME280;35547;55.676;37.492;2022-09-13T00:12:20;99124.06;;;15.68;46.58
49651;BME280;35547;55.676;37.492;2022-09-13T00:13:21;99114.66;;;15.44;46.81
49651;BME280;35547;55.676;37.492;2022-09-13T00:14:21;99120.06;;;15.41;47.65
49651;BME280;35547;55.676;37.492;2022-09-13T00:15:26;99119.88;;;15.45;47.16
49651;BME280;35547;55.676;37.492;2022-09-13T00:16:28;99109.19;;;15.67;46.53
49651;BME280;35547;55.676;37.492;2022-09-13T00:17:28;99109.56;;;15.41;46.88
49651;BME280;35547;55.676;37.492;2022-09-13T00:18:29;99122.28;;;15.50;47.00
49651;BME280;35547;55.676;37.492;2022-09-13T00:19:30;99119.59;;;15.51;47.14
49651;BME280;35547;55.676;37.492;2022-09-13T00:20:30;99100.97;;;15.56;46.66
49651;BME280;35547;55.676;37.492;2022-09-13T00:21:31;99118.94;;;15.65;46.58
49651;BME280;35547;55.676;37.492;2022-09-13T00:22:31;99104.88;;;15.66;46.32
49651;BME280;35547;55.676;37.492;2022-09-13T00:23:32;99113.31;;;15.74;46.31
49651;BME280;35547;55.676;37.492;2022-09-13T00:24:33;99096.88;;;15.68;46.26
49651;BME280;35547;55.676;37.492;2022-09-13T00:25:34;99094.13;;;15.52;46.67
49651;BME280;35547;55.676;37.492;2022-09-13T00:26:35;99117.47;;;15.79;46.80
49651;BME280;35547;55.676;37.492;2022-09-13T00:27:36;99107.88;;;15.77;46.42
49651;BME280;35547;55.676;37.492;2022-09-13T00:28:37;99112.41;;;15.36;47.12
49651;BME280;35547;55.676;37.492;2022-09-13T00:29:38;99112.53;;;15.52;47.13
49651;BME280;35547;55.676;37.492;2022-09-13T00:30:39;99104.13;;;15.44;47.19
49651;BME280;35547;55.676;37.492;2022-09-13T00:31:39;99120.28;;;15.36;47.58
49651;BME280;35547;55.676;37.492;2022-09-13T00:32:40;99112.31;;;15.38;47.57
49651;BME280;35547;55.676;37.492;2022-09-13T00:33:41;99109.63;;;15.58;46.63
49651;BME280;35547;55.676;37.492;2022-09-13T00:34:41;99101.09;;;15.34;47.29
49651;BME280;35547;55.676;37.492;2022-09-13T00:35:42;99105.09;;;15.62;46.86
49651;BME280;35547;55.676;37.492;2022-09-13T00:36:42;99105.34;;;15.36;47.14
49651;BME280;35547;55.676;37.492;2022-09-13T00:37:43;99095.31;;;15.26;47.14
49651;BME280;35547;55.676;37.492;2022-09-13T00:38:44;99105.13;;;15.22;47.24
49651;BME280;35547;55.676;37.492;2022-09-13T00:39:44;99113.06;;;15.21;47.77
49651;BME280;35547;55.676;37.492;2022-09-13T00:40:45;99108.28;;;15.49;47.07
49651;BME280;35547;55.676;37.492;2022-09-13T00:41:45;99109.34;;;15.64;46.91
49651;BME280;35547;55.676;37.492;2022-09-13T00:42:46;99114.31;;;15.32;47.24
49651;BME280;35547;55.676;37.492;2022-09-13T00:43:57;99108.47;;;15.64;46.75
49651;BME280;35547;55.676;37.492;2022-09-13T00:46:16;99112.47;;;15.53;46.63
49651;BME280;35547;55.676;37.492;2022-09-13T00:47:31;99112.28;;;15.96;46.74
49651;BME280;35547;55.676;37.492;2022-09-13T00:48:34;99099.22;;;15.75;45.96
49651;BME280;35547;55.676;37.492;2022-09-13T00:49:37;99111.56;;;15.92;46.24
49651;BME280;35547;55.676;37.492;2022-09-13T00:50:46;99109.16;;;15.88;46.21
49651;BME280;35547;55.676;37.492;2022-09-13T00:51:51;99104.66;;;15.71;47.14
49651;BME280;35547;55.676;37.492;2022-09-13T00:52:59;99095.53;;;15.59;46.80
49651;BME280;35547;55.676;37.492;2022-09-13T00:54:02;99107.72;;;15.43;47.01
49651;BME280;35547;55.676;37.492;2022-09-13T00:55:08;99100.44;;;15.48;47.27
49651;BME280;35547;55.676;37.492;2022-09-13T00:57:33;99109.88;;;15.33;47.42
49651;BME280;35547;55.676;37.492;2022-09-13T00:59:00;99107.03;;;15.38;47.48
49651;BME280;35547;55.676;37.492;2022-09-13T01:00:08;99110.97;;;15.67;47.21
49651;BME280;35547;55.676;37.492;2022-09-13T01:01:13;99104.22;;;15.61;46.75
49651;BME280;35547;55.676;37.492;2022-09-13T01:02:15;99093.91;;;14.98;48.11
49651;BME280;35547;55.676;37.492;2022-09-13T01:03:17;99104.91;;;15.27;47.44
49651;BME280;35547;55.676;37.492;2022-09-13T01:04:20;99101.06;;;15.15;48.05
49651;BME280;35547;55.676;37.492;2022-09-13T01:05:26;99112.31;;;15.38;47.93
49651;BME280;35547;55.676;37.492;2022-09-13T01:06:33;99101.66;;;15.41;47.47
49651;BME280;35547;55.676;37.492;2022-09-13T01:07:35;99091.94;;;15.43;47.27
49651;BME280;35547;55.676;37.492;2022-09-13T01:08:39;99114.53;;;15.66;46.93
49651;BME280;35547;55.676;37.492;2022-09-13T01:09:43;99101.63;;;15.22;47.71
49651;BME280;35547;55.676;37.492;2022-09-13T01:10:45;99102.28;;;15.46;47.41
49651;BME280;35547;55.676;37.492;2022-09-13T01:12:03;99091.63;;;15.30;47.34
49651;BME280;35547;55.676;37.492;2022-09-13T01:13:15;99100.09;;;15.36;47.65
49651;BME280;35547;55.676;37.492;2022-09-13T01:14:18;99107.56;;;15.06;47.95
49651;BME280;35547;55.676;37.492;2022-09-13T01:15:20;99110.00;;;15.11;47.96
49651;BME280;35547;55.676;37.492;2022-09-13T01:16:20;99092.31;;;15.14;47.95
49651;BME280;35547;55.676;37.492;2022-09-13T01:17:21;99088.69;;;15.17;48.49
49651;BME280;35547;55.676;37.492;2022-09-13T01:18:21;99099.72;;;15.25;47.99
49651;BME280;35547;55.676;37.492;2022-09-13T01:19:22;99102.66;;;15.57;47.12
49651;BME280;35547;55.676;37.492;2022-09-13T01:20:31;99095.53;;;15.59;47.42
49651;BME280;35547;55.676;37.492;2022-09-13T01:22:17;99100.41;;;15.68;47.41
49651;BME280;35547;55.676;37.492;2022-09-13T01:30:17;99103.28;;;15.24;47.78
49651;BME280;35547;55.676;37.492;2022-09-13T01:31:24;99108.69;;;15.21;47.56
49651;BME280;35547;55.676;37.492;2022-09-13T01:34:15;99095.53;;;15.21;48.95
49651;BME280;35547;55.676;37.492;2022-09-13T01:44:46;99091.25;;;15.38;48.79
49651;BME280;35547;55.676;37.492;2022-09-13T01:46:17;99098.50;;;15.13;48.24
49651;BME280;35547;55.676;37.492;2022-09-13T01:49:46;99092.38;;;15.13;47.84
49651;BME280;35547;55.676;37.492;2022-09-13T01:50:59;99092.31;;;15.14;48.47
49651;BME280;35547;55.676;37.492;2022-09-13T01:52:35;99095.13;;;15.10;48.85
49651;BME280;35547;55.676;37.492;2022-09-13T01:55:07;99093.13;;;14.96;48.69
49651;BME280;35547;55.676;37.492;2022-09-13T01:56:26;99079.66;;;15.04;48.66
49651;BME280;35547;55.676;37.492;2022-09-13T01:57:55;99097.94;;;15.26;47.67
49651;BME280;35547;55.676;37.492;2022-09-13T01:59:05;99091.34;;;14.97;48.35
49651;BME280;35547;55.676;37.492;2022-09-13T02:00:15;99059.97;;;14.73;48.73
49651;BME280;35547;55.676;37.492;2022-09-13T02:01:39;99081.81;;;14.94;49.43
49651;BME280;35547;55.676;37.492;2022-09-13T02:03:17;99069.19;;;15.02;48.36
49651;BME280;35547;55.676;37.492;2022-09-13T02:04:21;99092.47;;;15.30;47.67
49651;BME280;35547;55.676;37.492;2022-09-13T02:05:35;99074.56;;;14.99;48.12
49651;BME280;35547;55.676;37.492;2022-09-13T02:06:45;99083.34;;;15.00;48.28
49651;BME280;35547;55.676;37.492;2022-09-13T02:07:58;99087.53;;;15.04;48.66
49651;BME280;35547;55.676;37.492;2022-09-13T02:09:03;99070.72;;;15.08;48.40
49651;BME280;35547;55.676;37.492;2022-09-13T02:10:25;99078.19;;;15.17;48.32
49651;BME280;35547;55.676;37.492;2022-09-13T02:11:26;99069.16;;;14.83;48.90
49651;BME280;35547;55.676;37.492;2022-09-13T02:12:30;99077.22;;;14.99;48.47
49651;BME280;35547;55.676;37.492;2022-09-13T02:13:36;99078.56;;;14.89;48.75
49651;BME280;35547;55.676;37.492;2022-09-13T02:14:41;99079.03;;;15.18;47.92
49651;BME280;35547;55.676;37.492;2022-09-13T02:15:45;99083.03;;;15.26;47.69
49651;BME280;35547;55.676;37.492;2022-09-13T02:16:55;99082.78;;;15.12;48.78
49651;BME280;35547;55.676;37.492;2022-09-13T02:18:09;99083.22;;;15.22;47.99
49651;BME280;35547;55.676;37.492;2022-09-13T02:19:19;99079.88;;;15.18;48.26
49651;BME280;35547;55.676;37.492;2022-09-13T02:20:26;99081.13;;;15.09;47.89
49651;BME280;35547;55.676;37.492;2022-09-13T02:21:35;99080.47;;;14.85;49.34
49651;BME280;35547;55.676;37.492;2022-09-13T02:22:43;99077.38;;;14.76;48.96
49651;BME280;35547;55.676;37.492;2022-09-13T02:23:51;99079.00;;;14.99;48.30
49651;BME280;35547;55.676;37.492;2022-09-13T02:24:56;99073.34;;;14.87;48.78
49651;BME280;35547;55.676;37.492;2022-09-13T02:26:01;99073.78;;;14.36;49.84
49651;BME280;35547;55.676;37.492;2022-09-13T02:27:09;99064.31;;;14.74;49.01
49651;BME280;35547;55.676;37.492;2022-09-13T02:28:16;99048.75;;;14.69;48.86
49651;BME280;35547;55.676;37.492;2022-09-13T02:29:20;99072.44;;;14.88;48.75
49651;BME280;35547;55.676;37.492;2022-09-13T02:30:24;99073.22;;;14.90;48.47
49651;BME280;35547;55.676;37.492;2022-09-13T02:31:30;99073.09;;;14.73;49.68
49651;BME280;35547;55.676;37.492;2022-09-13T02:32:47;99078.63;;;14.87;49.49
49651;BME280;35547;55.676;37.492;2022-09-13T02:33:56;99081.50;;;15.02;48.96
49651;BME280;35547;55.676;37.492;2022-09-13T02:35:07;99077.88;;;15.04;48.75
49651;BME280;35547;55.676;37.492;2022-09-13T02:36:19;99075.94;;;14.89;48.94
49651;BME280;35547;55.676;37.492;2022-09-13T02:37:24;99083.94;;;14.86;48.92
49651;BME280;35547;55.676;37.492;2022-09-13T02:38:31;99074.09;;;14.91;48.78
49651;BME280;35547;55.676;37.492;2022-09-13T02:39:35;99063.00;;;14.64;48.84
49651;BME280;35547;55.676;37.492;2022-09-13T02:40:44;99074.06;;;14.50;49.67
49651;BME280;35547;55.676;37.492;2022-09-13T02:42:03;99079.00;;;14.58;50.07
49651;BME280;35547;55.676;37.492;2022-09-13T02:43:30;99066.47;;;14.85;48.78
49651;BME280;35547;55.676;37.492;2022-09-13T02:44:39;99076.44;;;14.97;49.12
49651;BME280;35547;55.676;37.492;2022-09-13T02:45:50;99078.16;;;14.98;48.51
49651;BME280;35547;55.676;37.492;2022-09-13T02:48:13;99061.78;;;14.91;49.13
49651;BME280;35547;55.676;37.492;2022-09-13T02:50:33;99075.31;;;15.03;48.47
49651;BME280;35547;55.676;37.492;2022-09-13T02:54:11;99062.78;;;14.89;48.74
49651;BME280;35547;55.676;37.492;2022-09-13T02:56:03;99082.50;;;14.79;49.39
49651;BME280;35547;55.676;37.492;2022-09-13T02:58:15;99071.25;;;14.32;50.71
49651;BME280;35547;55.676;37.492;2022-09-13T02:59:21;99073.03;;;14.54;49.80
49651;BME280;35547;55.676;37.492;2022-09-13T03:00:22;99073.50;;;14.84;48.95
49651;BME280;35547;55.676;37.492;2022-09-13T03:01:23;99067.78;;;14.74;49.34
49651;BME280;35547;55.676;37.492;2022-09-13T03:02:28;99065.16;;;14.95;48.52
49651;BME280;35547;55.676;37.492;2022-09-13T03:03:31;99063.09;;;15.21;48.10
49651;BME280;35547;55.676;37.492;2022-09-13T03:04:32;99057.78;;;15.22;48.04
49651;BME280;35547;55.676;37.492;2022-09-13T03:05:33;99069.00;;;15.07;48.12
49651;BME280;35547;55.676;37.492;2022-09-13T03:06:34;99062.97;;;15.24;47.94
49651;BME280;35547;55.676;37.492;2022-09-13T03:07:34;99043.09;;;14.79;48.82
49651;BME280;35547;55.676;37.492;2022-09-13T03:08:36;99056.53;;;14.91;48.83
49651;BME280;35547;55.676;37.492;2022-09-13T03:09:42;99062.44;;;14.97;48.77
49651;BME280;35547;55.676;37.492;2022-09-13T03:11:10;99055.97;;;14.85;49.36
49651;BME280;35547;55.676;37.492;2022-09-13T03:18:41;99060.44;;;14.83;49.26
49651;BME280;35547;55.676;37.492;2022-09-13T03:24:22;99052.28;;;14.68;49.39
49651;BME280;35547;55.676;37.492;2022-09-13T03:29:41;99059.50;;;14.84;48.80
49651;BME280;35547;55.676;37.492;2022-09-13T03:30:49;99049.50;;;14.92;48.35
49651;BME280;35547;55.676;37.492;2022-09-13T03:32:19;99023.66;;;14.62;49.75
49651;BME280;35547;55.676;37.492;2022-09-13T03:37:17;99052.97;;;15.32;47.88
49651;BME280;35547;55.676;37.492;2022-09-13T03:38:45;99057.41;;;15.11;48.42
49651;BME280;35547;55.676;37.492;2022-09-13T03:41:17;99056.09;;;15.21;48.46
49651;BME280;35547;55.676;37.492;2022-09-13T03:42:27;99038.94;;;14.73;48.54
49651;BME280;35547;55.676;37.492;2022-09-13T03:43:48;99047.97;;;15.07;48.77
49651;BME280;35547;55.676;37.492;2022-09-13T03:44:52;99046.34;;;14.84;48.61
49651;BME280;35547;55.676;37.492;2022-09-13T03:45:58;99053.06;;;14.70;49.43
49651;BME280;35547;55.676;37.492;2022-09-13T03:47:02;99055.34;;;14.99;48.85
49651;BME280;35547;55.676;37.492;2022-09-13T03:48:05;99052.50;;;15.03;48.58
49651;BME280;35547;55.676;37.492;2022-09-13T03:49:09;99044.91;;;15.16;48.27
49651;BME280;35547;55.676;37.492;2022-09-13T03:50:16;99050.88;;;15.01;48.40
49651;BME280;35547;55.676;37.492;2022-09-13T03:51:17;99043.94;;;14.79;48.73
49651;BME280;35547;55.676;37.492;2022-09-13T03:52:18;99043.28;;;15.13;48.39
49651;BME280;35547;55.676;37.492;2022-09-13T03:53:22;99034.63;;;14.72;48.74
49651;BME280;35547;55.676;37.492;2022-09-13T03:54:31;99048.75;;;15.09;48.20
49651;BME280;35547;55.676;37.492;2022-09-13T03:55:33;99043.50;;;15.09;48.30
49651;BME280;35547;55.676;37.492;2022-09-13T03:56:34;99046.84;;;15.31;48.49
49651;BME280;35547;55.676;37.492;2022-09-13T03:57:35;99043.78;;;15.22;48.30
49651;BME280;35547;55.676;37.492;2022-09-13T03:58:36;99036.91;;;15.19;47.78
49651;BME280;35547;55.676;37.492;2022-09-13T03:59:38;99038.66;;;15.38;47.75
49651;BME280;35547;55.676;37.492;2022-09-13T04:00:41;99031.75;;;15.16;48.04
49651;BME280;35547;55.676;37.492;2022-09-13T04:01:41;99040.66;;;15.32;47.86
49651;BME280;35547;55.676;37.492;2022-09-13T04:02:43;99044.66;;;15.41;47.72
49651;BME280;35547;55.676;37.492;2022-09-13T04:03:44;99038.72;;;15.55;47.35
49651;BME280;35547;55.676;37.492;2022-09-13T04:04:45;99042.72;;;15.26;47.86
49651;BME280;35547;55.676;37.492;2022-09-13T04:05:46;99044.88;;;15.55;47.21
49651;BME280;35547;55.676;37.492;2022-09-13T04:06:46;99044.78;;;15.57;47.37
49651;BME280;35547;55.676;37.492;2022-09-13T04:07:47;99041.78;;;15.65;46.87
49651;BME280;35547;55.676;37.492;2022-09-13T04:08:47;99044.03;;;15.36;47.29
49651;BME280;35547;55.676;37.492;2022-09-13T04:09:48;99044.63;;;15.22;47.83
49651;BME280;35547;55.676;37.492;2022-09-13T04:10:49;99039.25;;;15.25;47.37
49651;BME280;35547;55.676;37.492;2022-09-13T04:11:51;99036.88;;;15.57;47.34
49651;BME280;35547;55.676;37.492;2022-09-13T04:12:53;99042.44;;;15.51;46.59
49651;BME280;35547;55.676;37.492;2022-09-13T04:13:53;99042.00;;;15.41;47.24
49651;BME280;35547;55.676;37.492;2022-09-13T04:14:54;99011.38;;;14.63;48.69
49651;BME280;35547;55.676;37.492;2022-09-13T04:15:59;99032.25;;;15.05;48.60
49651;BME280;35547;55.676;37.492;2022-09-13T04:17:00;99032.81;;;15.12;48.35
49651;BME280;35547;55.676;37.492;2022-09-13T04:18:00;99027.53;;;15.32;47.86
49651;BME280;35547;55.676;37.492;2022-09-13T04:19:01;99036.53;;;15.27;47.94
49651;BME280;35547;55.676;37.492;2022-09-13T04:20:02;99020.16;;;15.01;48.49
49651;BME280;35547;55.676;37.492;2022-09-13T04:21:04;99046.94;;;14.90;48.62
49651;BME280;35547;55.676;37.492;2022-09-13T04:22:05;99046.75;;;15.14;48.55
49651;BME280;35547;55.676;37.492;2022-09-13T04:23:06;99028.34;;;15.14;48.25
49651;BME280;35547;55.676;37.492;2022-09-13T04:24:07;99043.66;;;15.06;48.26
49651;BME280;35547;55.676;37.492;2022-09-13T04:25:07;99040.88;;;15.09;48.19
49651;BME280;35547;55.676;37.492;2022-09-13T04:26:09;99037.25;;;15.30;47.90
49651;BME280;35547;55.676;37.492;2022-09-13T04:27:11;99044.22;;;15.12;48.25
49651;BME280;35547;55.676;37.492;2022-09-13T04:28:12;99037.19;;;14.92;48.45
49651;BME280;35547;55.676;37.492;2022-09-13T04:29:12;99048.59;;;15.12;48.00
49651;BME280;35547;55.676;37.492;2022-09-13T04:30:13;99042.66;;;15.27;48.59
49651;BME280;35547;55.676;37.492;2022-09-13T04:31:13;99038.94;;;14.93;48.26
49651;BME280;35547;55.676;37.492;2022-09-13T04:32:14;99035.47;;;14.72;49.19
49651;BME280;35547;55.676;37.492;2022-09-13T04:33:15;99045.81;;;14.96;48.59
49651;BME280;35547;55.676;37.492;2022-09-13T04:34:16;99042.22;;;15.55;47.27
49651;BME280;35547;55.676;37.492;2022-09-13T04:35:17;99037.53;;;15.81;46.96
49651;BME280;35547;55.676;37.492;2022-09-13T04:36:18;99042.44;;;16.06;46.03
49651;BME280;35547;55.676;37.492;2022-09-13T04:37:20;99029.03;;;16.11;45.81
49651;BME280;35547;55.676;37.492;2022-09-13T04:38:20;99038.47;;;15.97;46.44
49651;BME280;35547;55.676;37.492;2022-09-13T04:39:21;99053.34;;;15.81;46.03
49651;BME280;35547;55.676;37.492;2022-09-13T04:40:23;99015.03;;;15.93;45.85
49651;BME280;35547;55.676;37.492;2022-09-13T04:41:24;99036.91;;;14.80;48.69
49651;BME280;35547;55.676;37.492;2022-09-13T04:42:24;99047.28;;;15.41;47.91
49651;BME280;35547;55.676;37.492;2022-09-13T04:43:25;99028.53;;;15.49;47.57
49651;BME280;35547;55.676;37.492;2022-09-13T04:44:25;99043.19;;;15.53;47.84
49651;BME280;35547;55.676;37.492;2022-09-13T04:45:27;99026.44;;;15.18;47.83
49651;BME280;35547;55.676;37.492;2022-09-13T04:46:28;99034.84;;;15.26;48.09
49651;BME280;35547;55.676;37.492;2022-09-13T04:47:28;99050.91;;;15.76;47.20
49651;BME280;35547;55.676;37.492;2022-09-13T04:48:30;99054.31;;;15.79;46.60
49651;BME280;35547;55.676;37.492;2022-09-13T04:49:30;99025.63;;;15.91;46.27
49651;BME280;35547;55.676;37.492;2022-09-13T04:50:31;99051.91;;;16.28;45.61
49651;BME280;35547;55.676;37.492;2022-09-13T04:51:32;99049.75;;;16.36;45.10
49651;BME280;35547;55.676;37.492;2022-09-13T04:52:32;99055.00;;;16.53;45.10
49651;BME280;35547;55.676;37.492;2022-09-13T04:53:33;99053.53;;;16.13;45.90
49651;BME280;35547;55.676;37.492;2022-09-13T04:54:33;99051.00;;;16.46;45.05
49651;BME280;35547;55.676;37.492;2022-09-13T04:55:34;99046.41;;;16.15;45.66
49651;BME280;35547;55.676;37.492;2022-09-13T04:56:36;99050.59;;;16.19;45.86
49651;BME280;35547;55.676;37.492;2022-09-13T04:57:36;99055.25;;;16.14;45.81
49651;BME280;35547;55.676;37.492;2022-09-13T04:58:37;99049.91;;;16.15;45.49
49651;BME280;35547;55.676;37.492;2022-09-13T04:59:37;99052.81;;;15.54;46.40
49651;BME280;35547;55.676;37.492;2022-09-13T05:00:38;99039.66;;;15.35;47.71
49651;BME280;35547;55.676;37.492;2022-09-13T05:01:39;99045.66;;;15.57;47.07
49651;BME280;35547;55.676;37.492;2022-09-13T05:02:39;99055.97;;;15.81;46.56
49651;BME280;35547;55.676;37.492;2022-09-13T05:03:40;99055.31;;;16.12;45.99
49651;BME280;35547;55.676;37.492;2022-09-13T05:04:40;99045.06;;;15.89;46.41
49651;BME280;35547;55.676;37.492;2022-09-13T05:05:41;99046.38;;;15.97;46.29
49651;BME280;35547;55.676;37.492;2022-09-13T05:06:41;99054.31;;;16.32;46.25
49651;BME280;35547;55.676;37.492;2022-09-13T05:07:42;99047.13;;;16.53;45.33
49651;BME280;35547;55.676;37.492;2022-09-13T05:08:43;99061.84;;;16.57;45.01
49651;BME280;35547;55.676;37.492;2022-09-13T05:09:44;99062.38;;;16.12;46.21
49651;BME280;35547;55.676;37.492;2022-09-13T05:10:46;99053.53;;;16.30;45.37
49651;BME280;35547;55.676;37.492;2022-09-13T05:11:46;99049.91;;;16.15;45.65
49651;BME280;35547;55.676;37.492;2022-09-13T05:12:47;99057.41;;;15.68;46.73
49651;BME280;35547;55.676;37.492;2022-09-13T05:13:49;99054.22;;;15.61;46.95
49651;BME280;35547;55.676;37.492;2022-09-13T05:14:54;99056.41;;;15.13;48.16
49651;BME280;35547;55.676;37.492;2022-09-13T05:15:56;99051.75;;;15.39;47.42
49651;BME280;35547;55.676;37.492;2022-09-13T05:16:56;99049.72;;;16.01;46.76
49651;BME280;35547;55.676;37.492;2022-09-13T05:17:57;99056.88;;;16.16;45.76
49651;BME280;35547;55.676;37.492;2022-09-13T05:18:58;99056.66;;;15.85;46.27
49651;BME280;35547;55.676;37.492;2022-09-13T05:19:59;99052.81;;;15.35;47.22
49651;BME280;35547;55.676;37.492;2022-09-13T05:21:01;99053.53;;;15.76;46.58
49651;BME280;35547;55.676;37.492;2022-09-13T05:22:02;99057.56;;;16.03;46.60
49651;BME280;35547;55.676;37.492;2022-09-13T05:23:03;99046.34;;;16.34;45.50
49651;BME280;35547;55.676;37.492;2022-09-13T05:24:04;99060.75;;;16.44;45.09
49651;BME280;35547;55.676;37.492;2022-09-13T05:25:05;99051.13;;;16.08;46.03
49651;BME280;35547;55.676;37.492;2022-09-13T05:26:06;99064.78;;;15.80;46.76
49651;BME280;35547;55.676;37.492;2022-09-13T05:27:06;99057.56;;;15.65;46.82
49651;BME280;35547;55.676;37.492;2022-09-13T05:28:08;99041.03;;;15.82;46.21
49651;BME280;35547;55.676;37.492;2022-09-13T05:29:08;99052.09;;;15.88;46.44
49651;BME280;35547;55.676;37.492;2022-09-13T05:30:09;99050.81;;;15.97;46.36
49651;BME280;35547;55.676;37.492;2022-09-13T05:31:40;99059.38;;;15.83;46.54
49651;BME280;35547;55.676;37.492;2022-09-13T05:32:41;99019.78;;;15.29;47.01
49651;BME280;35547;55.676;37.492;2022-09-13T05:33:42;99071.03;;;15.77;46.53
49651;BME280;35547;55.676;37.492;2022-09-13T05:34:43;99065.97;;;16.28;45.67
49651;BME280;35547;55.676;37.492;2022-09-13T05:35:43;99065.56;;;15.82;46.33
49651;BME280;35547;55.676;37.492;2022-09-13T05:36:44;99059.53;;;15.97;46.07
49651;BME280;35547;55.676;37.492;2022-09-13T05:37:45;99069.47;;;15.92;46.26
49651;BME280;35547;55.676;37.492;2022-09-13T05:38:48;99060.25;;;16.01;46.24
49651;BME280;35547;55.676;37.492;2022-09-13T05:39:48;99059.44;;;16.35;45.62
49651;BME280;35547;55.676;37.492;2022-09-13T05:40:56;99057.97;;;16.47;45.15
49651;BME280;35547;55.676;37.492;2022-09-13T05:41:57;99054.06;;;16.20;46.64
49651;BME280;35547;55.676;37.492;2022-09-13T05:42:58;99012.97;;;15.25;47.08
49651;BME280;35547;55.676;37.492;2022-09-13T05:43:59;99056.00;;;15.23;47.61
49651;BME280;35547;55.676;37.492;2022-09-13T05:45:00;99044.69;;;15.21;47.36
49651;BME280;35547;55.676;37.492;2022-09-13T05:46:01;99055.38;;;15.18;48.11
49651;BME280;35547;55.676;37.492;2022-09-13T05:47:02;99063.69;;;15.27;48.08
49651;BME280;35547;55.676;37.492;2022-09-13T05:48:03;99058.56;;;15.24;47.69
49651;BME280;35547;55.676;37.492;2022-09-13T05:49:04;99067.78;;;15.14;48.06
49651;BME280;35547;55.676;37.492;2022-09-13T05:50:05;99066.94;;;15.13;48.51
49651;BME280;35547;55.676;37.492;2022-09-13T05:51:13;99054.78;;;15.11;49.11
49651;BME280;35547;55.676;37.492;2022-09-13T05:52:14;99059.63;;;15.20;47.86
49651;BME280;35547;55.676;37.492;2022-09-13T05:53:14;99067.97;;;15.49;47.75
49651;BME280;35547;55.676;37.492;2022-09-13T05:54:15;99069.88;;;15.64;47.36
49651;BME280;35547;55.676;37.492;2022-09-13T05:55:16;99061.56;;;15.35;47.24
49651;BME280;35547;55.676;37.492;2022-09-13T05:56:22;99064.97;;;15.38;47.31
49651;BME280;35547;55.676;37.492;2022-09-13T05:57:23;99050.13;;;15.36;47.25
49651;BME280;35547;55.676;37.492;2022-09-13T05:58:23;99069.19;;;15.80;46.71
49651;BME280;35547;55.676;37.492;2022-09-13T05:59:25;99046.53;;;15.94;46.35
49651;BME280;35547;55.676;37.492;2022-09-13T06:00:25;99063.53;;;16.24;45.84
49651;BME280;35547;55.676;37.492;2022-09-13T06:01:27;99056.44;;;15.32;47.49
49651;BME280;35547;55.676;37.492;2022-09-13T06:02:29;99067.31;;;15.06;47.73
49651;BME280;35547;55.676;37.492;2022-09-13T06:03:30;99070.88;;;15.43;47.16
49651;BME280;35547;55.676;37.492;2022-09-13T06:04:30;99049.03;;;15.79;46.50
49651;BME280;35547;55.676;37.492;2022-09-13T06:05:31;99049.63;;;15.66;46.24
49651;BME280;35547;55.676;37.492;2022-09-13T06:06:33;99062.78;;;15.47;47.00
49651;BME280;35547;55.676;37.492;2022-09-13T06:07:34;99057.66;;;15.25;47.43
49651;BME280;35547;55.676;37.492;2022-09-13T06:08:35;99053.38;;;15.99;46.39
49651;BME280;35547;55.676;37.492;2022-09-13T06:09:36;99061.22;;;16.17;45.60
49651;BME280;35547;55.676;37.492;2022-09-13T06:10:36;99064.22;;;16.10;45.72
49651;BME280;35547;55.676;37.492;2022-09-13T06:11:37;99046.53;;;15.94;46.04
49651;BME280;35547;55.676;37.492;2022-09-13T06:12:38;99061.91;;;15.85;46.44
49651;BME280;35547;55.676;37.492;2022-09-13T06:13:40;99051.41;;;16.02;46.13
49651;BME280;35547;55.676;37.492;2022-09-13T06:14:42;99021.75;;;15.81;46.00
49651;BME280;35547;55.676;37.492;2022-09-13T06:15:42;99061.91;;;16.21;45.57
49651;BME280;35547;55.676;37.492;2022-09-13T06:16:43;99057.66;;;16.53;45.19
49651;BME280;35547;55.676;37.492;2022-09-13T06:17:44;99033.25;;;16.85;44.22
49651;BME280;35547;55.676;37.492;2022-09-13T06:18:45;99056.22;;;16.98;43.89
49651;BME280;35547;55.676;37.492;2022-09-13T06:19:45;99058.06;;;17.14;43.59
49651;BME280;35547;55.676;37.492;2022-09-13T06:20:46;99043.28;;;17.27;43.32
49651;BME280;35547;55.676;37.492;2022-09-13T06:21:47;99056.22;;;17.48;43.08
49651;BME280;35547;55.676;37.492;2022-09-13T06:22:48;99056.09;;;17.83;42.55
49651;BME280;35547;55.676;37.492;2022-09-13T06:23:52;99060.41;;;17.52;42.76
49651;BME280;35547;55.676;37.492;2022-09-13T06:24:53;99056.47;;;16.94;44.37
49651;BME280;35547;55.676;37.492;2022-09-13T06:26:04;99044.88;;;16.81;44.29
49651;BME280;35547;55.676;37.492;2022-09-13T06:27:05;99035.44;;;16.42;44.71
49651;BME280;35547;55.676;37.492;2022-09-13T06:28:06;99057.19;;;16.28;45.56